createdAt,value
2023-04-23T00:00:21.120Z,89.83
2023-04-23T00:01:21.022Z,90.23
2023-04-23T00:02:21.068Z,90.48
2023-04-23T00:03:22.107Z,91.14
2023-04-23T00:04:21.185Z,90.68
2023-04-23T00:05:21.001Z,91.39
2023-04-23T00:06:20.982Z,92.00
2023-04-23T00:07:20.994Z,92.30
2023-04-23T00:08:20.992Z,92.04
2023-04-23T00:09:20.963Z,92.21
2023-04-23T00:10:20.935Z,92.55
2023-04-23T00:11:20.939Z,92.96
2023-04-23T00:12:20.969Z,93.06
2023-04-23T00:13:20.963Z,93.67
2023-04-23T00:14:20.909Z,93.57
2023-04-23T00:15:20.909Z,93.98
2023-04-23T00:16:20.922Z,94.18
2023-04-23T00:17:21.026Z,94.23
2023-04-23T00:18:20.873Z,94.73
2023-04-23T00:19:20.919Z,94.63
2023-04-23T00:20:20.879Z,94.84
2023-04-23T00:21:20.862Z,95.54
2023-04-23T00:22:20.861Z,95.14
2023-04-23T00:23:20.888Z,96.00
2023-04-23T00:24:20.876Z,95.59
2023-04-23T00:25:20.817Z,96.30
2023-04-23T00:26:20.830Z,96.41
2023-04-23T00:27:20.797Z,96.41
2023-04-23T00:28:22.267Z,96.71
2023-04-23T00:29:21.787Z,96.81
2023-04-23T00:30:20.806Z,96.76
2023-04-23T00:31:20.757Z,97.53
2023-04-23T00:32:20.811Z,96.81
2023-04-23T00:33:20.926Z,96.92
2023-04-23T00:34:20.751Z,97.42
2023-04-23T00:35:21.658Z,97.32
2023-04-23T00:36:20.818Z,97.47
2023-04-23T00:37:20.718Z,97.22
2023-04-23T00:38:20.723Z,97.53
2023-04-23T00:39:20.728Z,97.12
2023-04-23T00:40:20.755Z,97.02
2023-04-23T00:41:20.691Z,97.63
2023-04-23T00:42:20.676Z,97.73
2023-04-23T00:43:20.715Z,97.53
2023-04-23T00:44:20.694Z,97.88
2023-04-23T00:45:20.652Z,97.93
2023-04-23T00:46:21.765Z,97.93
2023-04-23T00:47:20.685Z,97.63
2023-04-23T00:48:20.630Z,97.93
2023-04-23T00:49:20.733Z,98.03
2023-04-23T00:50:20.637Z,98.24
2023-04-23T00:51:20.643Z,97.93
2023-04-23T00:52:20.617Z,98.44
2023-04-23T00:53:20.584Z,98.54
2023-04-23T00:54:20.619Z,98.44
2023-04-23T00:55:20.610Z,98.34
2023-04-23T00:56:20.638Z,98.28
2023-04-23T00:57:20.586Z,98.18
2023-04-23T00:58:20.621Z,98.49
2023-04-23T00:59:20.572Z,98.65
2023-04-23T01:00:20.583Z,98.49
2023-04-23T01:01:20.573Z,98.54
2023-04-23T01:02:20.650Z,99.10
2023-04-23T01:03:20.672Z,98.69
2023-04-23T01:04:20.543Z,99.10
2023-04-23T01:05:20.545Z,99.00
2023-04-23T01:06:20.520Z,99.20
2023-04-23T01:07:20.491Z,99.30
2023-04-23T01:08:20.500Z,99.51
2023-04-23T01:09:20.509Z,99.30
2023-04-23T01:10:20.467Z,99.20
2023-04-23T01:11:20.531Z,99.41
2023-04-23T01:12:20.504Z,99.30
2023-04-23T01:13:20.424Z,99.51
2023-04-23T01:14:20.444Z,99.20
2023-04-23T01:15:20.426Z,99.91
2023-04-23T01:16:20.479Z,99.81
2023-04-23T01:17:20.446Z,99.71
2023-04-23T01:18:20.395Z,99.61
2023-04-23T01:19:20.381Z,99.71
2023-04-23T01:20:20.560Z,99.61
2023-04-23T01:21:20.394Z,99.71
2023-04-23T01:22:20.425Z,99.71
2023-04-23T01:23:20.408Z,99.51
2023-04-23T01:24:20.371Z,99.71
2023-04-23T01:25:20.368Z,99.81
2023-04-23T01:26:20.356Z,99.91
2023-04-23T01:27:20.354Z,99.99
2023-04-23T01:28:20.357Z,99.91
2023-04-23T01:29:20.345Z,99.99
2023-04-23T01:30:20.307Z,99.99
2023-04-23T01:31:20.357Z,99.99
2023-04-23T01:32:20.326Z,99.99
2023-04-23T01:33:20.311Z,99.99
2023-04-23T01:34:20.297Z,99.99
2023-04-23T01:35:20.312Z,99.99
2023-04-23T01:36:20.252Z,99.99
2023-04-23T01:37:20.255Z,99.99
2023-04-23T01:38:20.343Z,99.99
2023-04-23T01:39:20.269Z,99.99
2023-04-23T01:40:20.271Z,99.99
2023-04-23T01:41:21.139Z,99.99
2023-04-23T01:42:20.233Z,99.99
2023-04-23T01:43:20.234Z,99.99
2023-04-23T01:44:20.200Z,99.99
2023-04-23T01:45:20.249Z,99.99
2023-04-23T01:46:20.205Z,99.99
2023-04-23T01:47:20.237Z,99.99
2023-04-23T01:48:20.203Z,99.99
2023-04-23T01:49:20.167Z,99.99
2023-04-23T01:50:20.168Z,99.99
2023-04-23T01:51:20.168Z,99.99
2023-04-23T01:52:20.178Z,99.99
2023-04-23T01:53:20.130Z,99.99
2023-04-23T01:54:20.132Z,99.99
2023-04-23T01:55:20.107Z,99.99
2023-04-23T01:56:20.115Z,99.99
2023-04-23T01:57:20.108Z,99.99
2023-04-23T01:58:20.137Z,99.99
2023-04-23T01:59:20.096Z,99.99
2023-04-23T02:00:20.220Z,99.99
2023-04-23T02:01:20.092Z,99.99
2023-04-23T02:02:20.090Z,99.99
2023-04-23T02:03:20.310Z,99.99
2023-04-23T02:04:20.169Z,99.99
2023-04-23T02:05:20.054Z,99.99
2023-04-23T02:06:20.024Z,99.99
2023-04-23T02:07:20.045Z,99.99
2023-04-23T02:08:20.067Z,99.99
2023-04-23T02:09:20.076Z,99.99
2023-04-23T02:10:20.002Z,99.99
2023-04-23T02:11:20.021Z,99.99
2023-04-23T02:12:19.972Z,99.99
2023-04-23T02:13:20.017Z,99.99
2023-04-23T02:14:19.997Z,99.99
2023-04-23T02:15:20.040Z,99.99
2023-04-23T02:16:20.007Z,99.99
2023-04-23T02:17:19.987Z,99.99
2023-04-23T02:18:19.934Z,99.99
2023-04-23T02:19:19.929Z,99.99
2023-04-23T02:20:19.949Z,99.99
2023-04-23T02:21:20.639Z,99.99
2023-04-23T02:22:19.918Z,99.99
2023-04-23T02:23:19.884Z,99.99
2023-04-23T02:24:19.900Z,99.99
2023-04-23T02:25:19.916Z,99.99
2023-04-23T02:26:19.897Z,99.99
2023-04-23T02:27:19.852Z,99.99
2023-04-23T02:28:19.869Z,99.99
2023-04-23T02:29:19.883Z,99.99
2023-04-23T02:30:19.861Z,99.99
2023-04-23T02:31:19.887Z,99.99
2023-04-23T02:32:19.855Z,99.99
2023-04-23T02:33:19.825Z,99.99
2023-04-23T02:34:19.835Z,99.99
2023-04-23T02:35:19.852Z,99.99
2023-04-23T02:36:19.792Z,99.99
2023-04-23T02:37:19.801Z,99.99
2023-04-23T02:38:19.839Z,99.99
2023-04-23T02:39:19.756Z,99.99
2023-04-23T02:40:19.771Z,99.99
2023-04-23T02:41:19.758Z,99.99
2023-04-23T02:42:19.758Z,99.99
2023-04-23T02:43:20.473Z,99.99
2023-04-23T02:44:19.730Z,99.99
2023-04-23T02:45:19.740Z,99.99
2023-04-23T02:46:19.726Z,99.99
2023-04-23T02:47:20.537Z,99.99
2023-04-23T02:48:19.726Z,99.99
2023-04-23T02:49:19.721Z,99.99
2023-04-23T02:50:19.686Z,99.99
2023-04-23T02:51:19.694Z,99.99
2023-04-23T02:52:19.666Z,99.99
2023-04-23T02:53:19.711Z,99.99
2023-04-23T02:54:19.674Z,99.99
2023-04-23T02:55:19.727Z,99.99
2023-04-23T02:56:19.681Z,99.99
2023-04-23T02:57:20.672Z,99.99
2023-04-23T02:58:19.622Z,99.99
2023-04-23T02:59:19.628Z,99.99
2023-04-23T03:00:19.622Z,99.99
2023-04-23T03:01:19.638Z,99.99
2023-04-23T03:02:19.701Z,99.99
2023-04-23T03:03:19.662Z,99.99
2023-04-23T03:04:19.687Z,99.99
2023-04-23T03:05:19.592Z,99.99
2023-04-23T03:06:19.559Z,99.99
2023-04-23T03:07:19.583Z,99.99
2023-04-23T03:08:19.565Z,99.99
2023-04-23T03:09:19.564Z,99.99
2023-04-23T03:10:19.575Z,99.99
2023-04-23T03:11:19.523Z,99.99
2023-04-23T03:12:19.519Z,99.99
2023-04-23T03:13:19.553Z,99.99
2023-04-23T03:14:19.508Z,99.99
2023-04-23T03:15:19.499Z,99.99
2023-04-23T03:16:19.537Z,99.99
2023-04-23T03:17:19.486Z,99.99
2023-04-23T03:18:19.489Z,99.99
2023-04-23T03:19:19.457Z,99.99
2023-04-23T03:20:19.484Z,99.99
2023-04-23T03:21:19.489Z,99.99
2023-04-23T03:22:19.494Z,99.99
2023-04-23T03:23:19.465Z,99.99
2023-04-23T03:24:19.452Z,99.99
2023-04-23T03:25:19.417Z,99.99
2023-04-23T03:26:19.535Z,99.99
2023-04-23T03:27:19.479Z,99.99
2023-04-23T03:28:19.604Z,99.99
2023-04-23T03:29:19.369Z,99.99
2023-04-23T03:30:19.407Z,99.99
2023-04-23T03:31:19.430Z,99.99
2023-04-23T03:32:19.444Z,99.99
2023-04-23T03:33:19.379Z,99.99
2023-04-23T03:34:19.382Z,99.99
2023-04-23T03:35:19.341Z,99.99
2023-04-23T03:36:19.393Z,99.99
2023-04-23T03:37:19.329Z,99.99
2023-04-23T03:38:19.403Z,99.99
2023-04-23T03:39:19.322Z,99.99
2023-04-23T03:40:19.307Z,99.99
2023-04-23T03:41:19.327Z,99.99
2023-04-23T03:42:19.386Z,99.99
2023-04-23T03:43:19.299Z,99.99
2023-04-23T03:44:19.314Z,99.99
2023-04-23T03:45:19.432Z,99.99
2023-04-23T03:46:19.350Z,99.99
2023-04-23T04:02:14.734Z,99.99
2023-04-23T04:03:15.966Z,99.99
2023-04-23T04:04:16.139Z,99.99
2023-04-23T04:05:16.009Z,99.99
2023-04-23T04:06:15.736Z,99.99
2023-04-23T04:07:15.710Z,99.99
2023-04-23T04:08:15.757Z,99.99
2023-04-23T04:09:15.720Z,99.99
2023-04-23T04:10:15.750Z,99.99
2023-04-23T04:11:15.710Z,99.99
2023-04-23T04:12:15.688Z,99.99
2023-04-23T04:13:15.742Z,99.99
2023-04-23T04:14:15.655Z,99.99
2023-04-23T04:15:16.001Z,99.99
2023-04-23T04:16:15.682Z,99.99
2023-04-23T04:17:15.695Z,99.99
2023-04-23T04:18:15.651Z,99.99
2023-04-23T04:19:15.626Z,99.99
2023-04-23T04:20:15.667Z,99.99
2023-04-23T04:21:15.713Z,99.99
2023-04-23T04:22:15.656Z,99.99
2023-04-23T04:23:16.307Z,99.99
2023-04-23T04:24:15.586Z,99.99
2023-04-23T04:25:15.591Z,99.99
2023-04-23T04:26:15.573Z,99.99
2023-04-23T04:27:15.584Z,99.99
2023-04-23T04:28:15.614Z,99.99
2023-04-23T04:29:15.595Z,99.99
2023-04-23T04:30:15.530Z,99.99
2023-04-23T04:31:15.546Z,99.99
2023-04-23T04:32:15.584Z,99.99
2023-04-23T04:33:15.536Z,99.99
2023-04-23T04:34:15.548Z,99.99
2023-04-23T04:35:15.507Z,99.99
2023-04-23T04:36:15.510Z,99.99
2023-04-23T04:37:15.505Z,99.99
2023-04-23T04:38:15.495Z,99.99
2023-04-23T04:39:15.508Z,99.99
2023-04-23T04:40:15.488Z,99.99
2023-04-23T04:41:15.450Z,99.99
2023-04-23T04:42:15.453Z,99.99
2023-04-23T04:43:15.429Z,99.99
2023-04-23T04:44:15.490Z,99.99
2023-04-23T04:45:15.457Z,99.99
2023-04-23T04:46:15.462Z,99.99
2023-04-23T04:47:15.410Z,99.99
2023-04-23T04:48:15.406Z,99.99
2023-04-23T04:49:15.420Z,99.99
2023-04-23T04:50:15.422Z,99.99
2023-04-23T04:51:15.374Z,99.99
2023-04-23T04:52:15.391Z,99.99
2023-04-23T04:53:15.369Z,99.99
2023-04-23T04:54:15.455Z,99.99
2023-04-23T04:55:15.381Z,99.99
2023-04-23T04:56:15.323Z,99.99
2023-04-23T04:57:15.332Z,99.99
2023-04-23T04:58:15.329Z,99.99
2023-04-23T04:59:15.311Z,99.99
2023-04-23T05:00:16.294Z,99.99
2023-04-23T05:01:15.306Z,99.99
2023-04-23T05:02:15.406Z,99.99
2023-04-23T05:03:15.440Z,99.99
2023-04-23T05:04:15.481Z,99.99
2023-04-23T05:05:15.287Z,99.99
2023-04-23T05:06:15.350Z,99.99
2023-04-23T05:07:15.290Z,99.99
2023-04-23T05:08:15.249Z,99.99
2023-04-23T05:09:15.234Z,99.99
2023-04-23T05:10:15.241Z,99.99
2023-04-23T05:11:15.242Z,99.99
2023-04-23T05:12:15.244Z,99.99
2023-04-23T05:13:15.210Z,99.99
2023-04-23T05:14:15.207Z,99.99
2023-04-23T05:15:15.226Z,99.99
2023-04-23T05:16:15.254Z,99.99
2023-04-23T05:17:15.185Z,99.99
2023-04-23T05:18:15.182Z,99.99
2023-04-23T05:19:15.192Z,99.99
2023-04-23T05:20:15.863Z,99.99
2023-04-23T05:21:15.816Z,99.99
2023-04-23T05:22:15.163Z,99.99
2023-04-23T05:23:15.144Z,99.99
2023-04-23T05:24:15.139Z,99.99
2023-04-23T05:25:15.119Z,99.99
2023-04-23T05:26:15.155Z,99.99
2023-04-23T05:27:15.106Z,99.99
2023-04-23T05:28:15.103Z,99.99
2023-04-23T05:29:15.088Z,99.99
2023-04-23T05:30:15.074Z,99.99
2023-04-23T05:31:15.069Z,99.99
2023-04-23T05:32:15.208Z,99.99
2023-04-23T05:33:15.072Z,99.99
2023-04-23T05:34:15.101Z,99.99
2023-04-23T05:35:15.051Z,99.99
2023-04-23T05:36:15.053Z,99.99
2023-04-23T05:37:15.022Z,99.99
2023-04-23T05:38:15.043Z,99.99
2023-04-23T05:39:15.041Z,99.99
2023-04-23T05:40:15.012Z,99.99
2023-04-23T05:41:15.047Z,99.99
2023-04-23T05:42:14.995Z,99.99
2023-04-23T05:43:15.017Z,99.99
2023-04-23T05:44:14.971Z,99.99
2023-04-23T05:45:14.988Z,99.99
2023-04-23T05:46:14.988Z,99.99
2023-04-23T05:47:14.956Z,99.99
2023-04-23T05:48:14.922Z,99.99
2023-04-23T05:49:14.957Z,99.99
2023-04-23T05:50:14.939Z,99.99
2023-04-23T05:51:14.926Z,99.99
2023-04-23T05:52:14.914Z,99.99
2023-04-23T05:53:14.905Z,99.99
2023-04-23T05:54:14.912Z,99.99
2023-04-23T05:55:14.872Z,99.99
2023-04-23T05:56:14.898Z,99.99
2023-04-23T05:57:14.858Z,99.99
2023-04-23T05:58:14.902Z,99.99
2023-04-23T05:59:14.847Z,99.99
2023-04-23T06:00:14.852Z,99.99
2023-04-23T06:01:15.808Z,99.99
2023-04-23T06:02:14.994Z,99.99
2023-04-23T06:03:15.085Z,99.99
2023-04-23T06:04:15.118Z,99.70
2023-04-23T06:05:15.044Z,99.70
2023-04-23T06:06:14.857Z,99.80
2023-04-23T06:07:14.826Z,99.25
2023-04-23T06:08:14.786Z,99.09
2023-04-23T06:09:14.831Z,99.50
2023-04-23T06:10:14.777Z,99.99
2023-04-23T06:11:14.774Z,99.75
2023-04-23T06:12:14.741Z,99.85
2023-04-23T06:13:14.868Z,99.99
2023-04-23T06:14:14.732Z,99.99
2023-04-23T06:15:14.755Z,99.99
2023-04-23T06:16:14.773Z,99.99
2023-04-23T06:17:14.745Z,99.99
2023-04-23T06:18:14.799Z,99.99
2023-04-23T06:19:14.725Z,99.99
2023-04-23T06:20:14.719Z,99.99
2023-04-23T06:21:14.719Z,99.99
2023-04-23T06:22:14.702Z,99.99
2023-04-23T06:23:14.692Z,99.99
2023-04-23T06:24:14.710Z,99.55
2023-04-23T06:25:14.656Z,99.41
2023-04-23T06:26:14.688Z,97.93
2023-04-23T06:27:14.671Z,95.72
2023-04-23T06:28:14.633Z,93.33
2023-04-23T06:29:14.636Z,91.78
2023-04-23T06:30:14.654Z,90.41
2023-04-23T06:31:14.660Z,90.32
2023-04-23T06:32:14.646Z,88.70
2023-04-23T06:33:14.606Z,87.00
2023-04-23T06:34:14.588Z,86.91
2023-04-23T06:35:14.589Z,85.16
2023-04-23T06:36:14.588Z,84.00
2023-04-23T06:37:14.575Z,83.12
2023-04-23T06:38:14.576Z,82.01
2023-04-23T06:39:14.571Z,81.52
2023-04-23T06:40:14.550Z,80.92
2023-04-23T06:41:14.543Z,80.58
2023-04-23T06:42:14.532Z,80.50
2023-04-23T06:43:14.659Z,79.56
2023-04-23T06:44:14.677Z,77.98
2023-04-23T06:45:14.594Z,78.19
2023-04-23T06:46:14.536Z,78.92
2023-04-23T06:47:14.490Z,80.05
2023-04-23T06:48:14.609Z,80.96
2023-04-23T06:49:14.624Z,81.18
2023-04-23T06:50:14.509Z,79.81
2023-04-23T06:51:14.483Z,80.65
2023-04-23T06:52:14.455Z,80.31
2023-04-23T06:53:14.454Z,80.18
2023-04-23T06:54:14.474Z,78.22
2023-04-23T06:55:14.430Z,78.56
2023-04-23T06:56:14.664Z,78.46
2023-04-23T06:57:14.415Z,79.64
2023-04-23T06:58:16.007Z,81.50
2023-04-23T06:59:14.416Z,81.56
2023-04-23T07:00:15.307Z,80.51
2023-04-23T07:01:14.417Z,79.33
2023-04-23T07:02:14.436Z,77.98
2023-04-23T07:03:14.437Z,76.74
2023-04-23T07:04:14.454Z,75.13
2023-04-23T07:05:14.383Z,76.67
2023-04-23T07:06:14.380Z,74.75
2023-04-23T07:07:14.355Z,75.29
2023-04-23T07:08:15.367Z,75.13
2023-04-23T07:09:14.341Z,76.17
2023-04-23T07:10:16.296Z,75.83
2023-04-23T07:11:15.360Z,74.89
2023-04-23T07:12:14.326Z,76.47
2023-04-23T07:13:14.341Z,76.61
2023-04-23T07:14:14.306Z,77.89
2023-04-23T07:15:14.322Z,76.87
2023-04-23T07:16:14.343Z,76.94
2023-04-23T07:17:14.322Z,76.16
2023-04-23T07:18:14.310Z,74.48
2023-04-23T07:19:14.279Z,73.38
2023-04-23T07:20:14.276Z,73.61
2023-04-23T07:21:14.295Z,73.55
2023-04-23T07:22:14.263Z,75.26
2023-04-23T07:23:14.242Z,74.79
2023-04-23T07:24:14.274Z,75.43
2023-04-23T07:25:14.230Z,73.71
2023-04-23T07:26:14.225Z,74.82
2023-04-23T07:27:14.240Z,75.67
2023-04-23T07:28:14.206Z,74.99
2023-04-23T07:29:14.262Z,74.73
2023-04-23T07:30:14.214Z,74.82
2023-04-23T07:31:14.223Z,76.00
2023-04-23T07:32:14.288Z,75.46
2023-04-23T07:33:14.195Z,74.29
2023-04-23T07:34:14.188Z,78.27
2023-04-23T07:35:14.151Z,77.83
2023-04-23T07:36:14.413Z,77.89
2023-04-23T07:37:14.176Z,76.95
2023-04-23T07:38:14.134Z,76.31
2023-04-23T07:39:14.175Z,74.93
2023-04-23T07:40:14.142Z,72.94
2023-04-23T07:41:14.129Z,72.71
2023-04-23T07:42:14.209Z,72.67
2023-04-23T07:43:14.107Z,70.79
2023-04-23T07:44:14.119Z,70.23
2023-04-23T07:45:14.093Z,70.06
2023-04-23T07:46:14.104Z,68.65
2023-04-23T07:47:14.079Z,69.76
2023-04-23T07:48:14.064Z,70.56
2023-04-23T07:49:14.246Z,70.46
2023-04-23T07:50:14.053Z,69.99
2023-04-23T07:51:14.075Z,70.53
2023-04-23T07:52:14.258Z,69.92
2023-04-23T07:53:14.010Z,67.96
2023-04-23T07:54:14.094Z,67.61
2023-04-23T07:55:14.034Z,69.09
2023-04-23T07:56:14.033Z,70.06
2023-04-23T07:57:13.998Z,70.53
2023-04-23T07:58:14.051Z,70.36
2023-04-23T07:59:14.018Z,69.09
2023-04-23T08:00:14.034Z,69.02
2023-04-23T08:01:13.969Z,66.65
2023-04-23T08:02:14.106Z,68.85
2023-04-23T08:03:14.169Z,70.09
2023-04-23T08:04:14.304Z,69.89
2023-04-23T08:05:13.998Z,69.35
2023-04-23T08:06:13.949Z,67.69
2023-04-23T08:07:13.924Z,67.65
2023-04-23T08:08:13.896Z,68.45
2023-04-23T08:09:13.955Z,68.45
2023-04-23T08:10:13.926Z,71.16
2023-04-23T08:11:13.929Z,70.56
2023-04-23T08:12:13.880Z,70.50
2023-04-23T08:13:13.864Z,70.36
2023-04-23T08:14:13.853Z,69.76
2023-04-23T08:15:13.913Z,68.29
2023-04-23T08:16:13.926Z,68.49
2023-04-23T08:17:13.895Z,67.35
2023-04-23T08:18:13.837Z,68.62
2023-04-23T08:19:13.845Z,70.76
2023-04-23T08:20:13.832Z,69.56
2023-04-23T08:21:13.856Z,69.92
2023-04-23T08:22:13.823Z,70.89
2023-04-23T08:23:13.809Z,71.40
2023-04-23T08:24:14.372Z,72.20
2023-04-23T08:25:13.781Z,72.07
2023-04-23T08:26:13.814Z,71.10
2023-04-23T08:27:13.803Z,70.83
2023-04-23T08:28:13.827Z,72.88
2023-04-23T08:29:13.786Z,73.96
2023-04-23T08:30:13.774Z,74.46
2023-04-23T08:31:25.856Z,74.93
2023-04-23T08:32:15.867Z,73.11
2023-04-23T08:33:13.774Z,71.84
2023-04-23T08:34:13.735Z,69.49
2023-04-23T08:35:13.709Z,69.25
2023-04-23T08:36:13.702Z,70.26
2023-04-23T08:37:23.196Z,70.50
2023-04-23T08:38:15.727Z,70.46
2023-04-23T08:39:13.781Z,68.92
2023-04-23T08:40:13.696Z,66.64
2023-04-23T08:41:13.651Z,64.01
2023-04-23T08:42:13.808Z,64.75
2023-04-23T08:43:13.641Z,62.57
2023-04-23T08:44:13.676Z,64.25
2023-04-23T08:45:13.667Z,63.78
2023-04-23T08:46:13.693Z,63.15
2023-04-23T08:47:13.639Z,63.62
2023-04-23T08:48:13.686Z,62.71
2023-04-23T08:49:13.660Z,63.67
2023-04-23T08:50:13.624Z,64.15
2023-04-23T08:51:13.577Z,63.81
2023-04-23T08:52:13.587Z,62.25
2023-04-23T08:53:13.621Z,61.79
2023-04-23T08:54:13.587Z,60.27
2023-04-23T08:55:13.588Z,60.92
2023-04-23T08:56:13.587Z,61.54
2023-04-23T08:57:13.597Z,63.33
2023-04-23T08:58:14.295Z,65.23
2023-04-23T08:59:13.592Z,66.47
2023-04-23T09:00:13.651Z,67.68
2023-04-23T09:01:14.567Z,68.81
2023-04-23T09:02:13.580Z,69.45
2023-04-23T09:03:13.625Z,70.59
2023-04-23T09:04:13.510Z,71.30
2023-04-23T09:05:13.510Z,71.33
2023-04-23T09:06:13.496Z,71.23
2023-04-23T09:07:13.615Z,71.87
2023-04-23T09:08:13.700Z,72.11
2023-04-23T09:09:13.534Z,72.61
2023-04-23T09:10:16.078Z,72.95
2023-04-23T09:11:13.486Z,73.28
2023-04-23T09:12:13.488Z,73.90
2023-04-23T09:13:13.569Z,74.10
2023-04-23T09:14:13.543Z,74.74
2023-04-23T09:15:13.543Z,74.74
2023-04-23T09:16:13.620Z,74.84
2023-04-23T09:17:13.477Z,74.74
2023-04-23T09:18:13.450Z,74.33
2023-04-23T09:19:13.424Z,74.98
2023-04-23T09:20:13.416Z,75.18
2023-04-23T09:21:13.398Z,75.28
2023-04-23T09:22:13.522Z,75.89
2023-04-23T09:23:13.404Z,76.19
2023-04-23T09:24:13.422Z,75.79
2023-04-23T09:25:13.400Z,74.10
2023-04-23T09:26:13.364Z,74.19
2023-04-23T09:27:14.392Z,73.46
2023-04-23T09:28:13.333Z,73.66
2023-04-23T09:29:13.335Z,73.15
2023-04-23T09:30:13.349Z,72.91
2023-04-23T09:31:13.344Z,73.69
2023-04-23T09:32:13.374Z,73.42
2023-04-23T09:33:13.323Z,73.52
2023-04-23T09:34:13.290Z,73.35
2023-04-23T09:35:13.299Z,73.35
2023-04-23T09:36:13.328Z,74.57
2023-04-23T09:37:13.319Z,73.72
2023-04-23T09:38:13.321Z,73.05
2023-04-23T09:39:13.277Z,74.16
2023-04-23T09:40:13.238Z,73.90
2023-04-23T09:41:13.245Z,73.19
2023-04-23T09:42:13.278Z,73.99
2023-04-23T09:43:13.231Z,74.70
2023-04-23T09:44:13.244Z,73.99
2023-04-23T09:45:13.185Z,74.84
2023-04-23T09:46:13.222Z,75.45
2023-04-23T09:47:13.488Z,75.21
2023-04-23T09:48:13.174Z,75.75
2023-04-23T09:49:13.212Z,74.84
2023-04-23T09:50:13.229Z,75.10
2023-04-23T09:51:13.151Z,76.12
2023-04-23T09:52:13.187Z,76.12
2023-04-23T09:53:13.148Z,76.15
2023-04-23T09:54:13.122Z,75.71
2023-04-23T09:55:13.120Z,74.43
2023-04-23T09:56:13.139Z,74.63
2023-04-23T09:57:13.105Z,75.24
2023-04-23T09:58:13.121Z,74.90
2023-04-23T09:59:13.111Z,74.80
2023-04-23T10:00:14.791Z,73.52
2023-04-23T10:01:14.128Z,73.46
2023-04-23T10:02:13.226Z,72.88
2023-04-23T10:03:13.193Z,72.07
2023-04-23T10:04:13.206Z,71.87
2023-04-23T10:05:23.466Z,72.48
2023-04-23T10:06:30.604Z,71.47
2023-04-23T10:07:19.708Z,71.00
2023-04-23T10:08:15.237Z,71.70
2023-04-23T10:09:13.100Z,71.64
2023-04-23T10:10:13.055Z,71.64
2023-04-23T10:11:20.725Z,73.08
2023-04-23T10:12:35.384Z,73.05
2023-04-23T10:13:15.065Z,73.19
2023-04-23T10:14:13.040Z,73.22
2023-04-23T10:15:12.957Z,73.02
2023-04-23T10:16:22.315Z,73.93
2023-04-23T10:17:14.974Z,74.03
2023-04-23T10:18:12.971Z,74.03
2023-04-23T10:19:13.379Z,73.86
2023-04-23T10:20:12.923Z,73.18
2023-04-23T10:21:12.929Z,70.62
2023-04-23T10:22:18.998Z,71.00
2023-04-23T10:23:14.922Z,70.26
2023-04-23T10:24:12.927Z,68.65
2023-04-23T10:25:12.927Z,67.78
2023-04-23T10:26:12.880Z,65.23
2023-04-23T10:27:24.801Z,65.20
2023-04-23T10:28:14.928Z,64.47
2023-04-23T10:29:12.862Z,64.54
2023-04-23T10:30:12.896Z,64.34
2023-04-23T10:31:12.903Z,64.20
2023-04-23T10:32:12.830Z,64.57
2023-04-23T10:33:22.380Z,65.07
2023-04-23T10:34:14.918Z,64.97
2023-04-23T10:35:12.858Z,64.84
2023-04-23T10:36:12.817Z,64.78
2023-04-23T10:37:12.804Z,62.81
2023-04-23T10:38:12.797Z,62.24
2023-04-23T10:39:12.777Z,61.87
2023-04-23T10:40:12.807Z,62.11
2023-04-23T10:41:12.785Z,60.21
2023-04-23T10:42:12.753Z,59.45
2023-04-23T10:43:12.748Z,59.75
2023-04-23T10:44:13.892Z,61.12
2023-04-23T10:45:23.096Z,58.98
2023-04-23T10:46:14.806Z,61.11
2023-04-23T10:47:12.722Z,60.28
2023-04-23T10:48:13.757Z,61.15
2023-04-23T10:49:12.739Z,61.42
2023-04-23T10:50:12.735Z,59.49
2023-04-23T10:51:49.479Z,57.75
2023-04-23T10:52:20.012Z,60.51
2023-04-23T10:53:14.729Z,62.64
2023-04-23T10:54:12.681Z,61.88
2023-04-23T10:55:12.729Z,61.01
2023-04-23T10:56:12.657Z,62.24
2023-04-23T10:57:12.673Z,60.33
2023-04-23T10:58:12.644Z,61.14
2023-04-23T10:59:12.686Z,61.41
2023-04-23T11:00:12.672Z,60.65
2023-04-23T11:01:12.652Z,60.15
2023-04-23T11:02:12.758Z,58.39
2023-04-23T11:03:12.820Z,57.19
2023-04-23T11:04:12.816Z,56.09
2023-04-23T11:05:12.695Z,55.92
2023-04-23T11:06:12.628Z,57.30
2023-04-23T11:07:12.612Z,58.23
2023-04-23T11:08:19.197Z,58.30
2023-04-23T11:09:14.587Z,58.50
2023-04-23T11:10:12.573Z,57.80
2023-04-23T11:11:12.551Z,57.89
2023-04-23T11:12:12.560Z,58.72
2023-04-23T11:13:12.551Z,59.32
2023-04-23T11:14:12.544Z,59.05
2023-04-23T11:15:12.562Z,59.85
2023-04-23T11:16:13.498Z,59.05
2023-04-23T11:17:12.530Z,60.38
2023-04-23T11:18:13.523Z,61.51
2023-04-23T11:19:12.588Z,62.32
2023-04-23T11:20:12.564Z,63.45
2023-04-23T11:21:12.491Z,63.25
2023-04-23T11:22:12.523Z,63.68
2023-04-23T11:23:12.460Z,63.68
2023-04-23T11:24:12.496Z,63.18
2023-04-23T11:25:12.475Z,63.82
2023-04-23T11:26:12.454Z,62.91
2023-04-23T11:27:12.422Z,63.92
2023-04-23T11:28:12.444Z,62.54
2023-04-23T11:29:12.560Z,62.84
2023-04-23T11:30:12.409Z,62.13
2023-04-23T11:31:12.406Z,62.77
2023-04-23T11:32:12.465Z,63.34
2023-04-23T11:33:12.548Z,63.45
2023-04-23T11:34:12.442Z,62.51
2023-04-23T11:35:13.816Z,61.67
2023-04-23T11:36:13.470Z,62.71
2023-04-23T11:37:12.379Z,63.39
2023-04-23T11:38:12.367Z,62.48
2023-04-23T11:39:12.343Z,61.27
2023-04-23T11:40:12.408Z,62.48
2023-04-23T11:41:12.360Z,62.07
2023-04-23T11:42:12.338Z,62.58
2023-04-23T11:43:12.392Z,60.51
2023-04-23T11:44:12.334Z,59.58
2023-04-23T11:45:12.319Z,60.62
2023-04-23T11:46:12.354Z,58.81
2023-04-23T11:47:12.276Z,58.64
2023-04-23T11:48:12.283Z,58.64
2023-04-23T11:49:12.310Z,58.07
2023-04-23T11:50:12.379Z,59.14
2023-04-23T11:51:12.293Z,58.77
2023-04-23T11:52:12.282Z,59.20
2023-04-23T11:53:12.219Z,60.41
2023-04-23T11:54:12.244Z,60.81
2023-04-23T11:55:12.231Z,59.60
2023-04-23T11:56:12.235Z,59.46
2023-04-23T11:57:12.258Z,60.67
2023-04-23T11:58:12.202Z,59.89
2023-04-23T11:59:12.220Z,60.60
2023-04-23T12:00:12.263Z,61.13
2023-04-23T12:01:12.229Z,61.23
2023-04-23T12:02:12.259Z,61.43
2023-04-23T12:03:12.408Z,61.73
2023-04-23T12:04:12.467Z,60.93
2023-04-23T12:05:12.178Z,60.85
2023-04-23T12:06:12.177Z,61.73
2023-04-23T12:07:25.393Z,61.25
2023-04-23T12:08:14.117Z,61.63
2023-04-23T12:09:12.116Z,61.90
2023-04-23T12:10:12.152Z,61.80
2023-04-23T12:11:12.100Z,62.68
2023-04-23T12:12:12.149Z,61.74
2023-04-23T12:13:12.112Z,60.67
2023-04-23T12:14:12.080Z,60.87
2023-04-23T12:15:12.105Z,60.69
2023-04-23T12:16:12.187Z,61.30
2023-04-23T12:17:12.077Z,62.41
2023-04-23T12:18:12.080Z,61.70
2023-04-23T12:19:12.095Z,62.13
2023-04-23T12:20:12.057Z,61.43
2023-04-23T12:21:12.061Z,61.93
2023-04-23T12:22:12.016Z,61.73
2023-04-23T12:23:12.037Z,61.73
2023-04-23T12:24:12.014Z,61.93
2023-04-23T12:25:12.010Z,61.03
2023-04-23T12:26:12.041Z,62.04
2023-04-23T12:27:12.035Z,61.83
2023-04-23T12:28:12.015Z,62.04
2023-04-23T12:29:12.001Z,61.43
2023-04-23T12:30:12.168Z,60.72
2023-04-23T12:31:12.591Z,61.10
2023-04-23T12:32:12.204Z,61.77
2023-04-23T12:33:12.042Z,60.77
2023-04-23T12:34:11.992Z,60.74
2023-04-23T12:35:11.948Z,60.91
2023-04-23T12:36:11.948Z,59.20
2023-04-23T12:37:11.913Z,59.80
2023-04-23T12:38:11.982Z,58.29
2023-04-23T12:39:11.941Z,59.67
2023-04-23T12:40:12.469Z,59.34
2023-04-23T12:41:11.924Z,58.57
2023-04-23T12:42:11.898Z,58.64
2023-04-23T12:43:11.947Z,58.92
2023-04-23T12:44:44.376Z,58.42
2023-04-23T12:45:43.803Z,58.11
2023-04-23T12:46:11.892Z,57.01
2023-04-23T12:47:11.813Z,56.54
2023-04-23T12:48:11.807Z,56.63
2023-04-23T12:49:11.827Z,57.37
2023-04-23T12:50:11.800Z,57.06
2023-04-23T12:51:11.816Z,57.54
2023-04-23T12:52:13.896Z,55.93
2023-04-23T12:53:12.798Z,56.63
2023-04-23T12:54:11.766Z,56.13
2023-04-23T12:55:11.843Z,56.36
2023-04-23T12:56:11.777Z,57.84
2023-04-23T12:57:11.742Z,57.71
2023-04-23T12:58:11.798Z,57.71
2023-04-23T12:59:11.755Z,57.91
2023-04-23T13:00:11.710Z,56.81
2023-04-23T13:01:11.960Z,57.71
2023-04-23T13:02:11.905Z,56.38
2023-04-23T13:03:11.755Z,57.28
2023-04-23T13:04:11.691Z,57.96
2023-04-23T13:05:11.690Z,56.13
2023-04-23T13:06:11.723Z,57.13
2023-04-23T13:07:11.701Z,54.65